Time;durP1;ratioP1;P1;durP2;ratioP2;P2;SDS_P1;SDS_P2;PMS_P1;PMS_P2;Temp;Humidity;BMP_temperature;BMP_pressure;BME280_temperature;BME280_humidity;BME280_pressure;Samples;Min_cycle;Max_cycle;Signal;HPM_P1;HPM_P2
2023/06/16 00:00:19;;;;;;;6.68;5.22;;;17.10;99.90;;;;;;5070843;28;20012;-57
2023/06/16 00:02:48;;;;;;;6.55;5.20;;;16.90;99.90;;;;;;5069582;28;20024;-58
2023/06/16 00:05:14;;;;;;;6.78;5.45;;;16.90;99.90;;;;;;5070315;28;20033;-59
2023/06/16 00:07:40;;;;;;;6.20;5.57;;;16.90;99.90;;;;;;5068868;28;20035;-59
2023/06/16 00:10:09;;;;;;;6.75;5.80;;;16.70;99.90;;;;;;5070244;28;20059;-58
2023/06/16 00:12:35;;;;;;;7.18;5.63;;;16.60;99.90;;;;;;5070787;28;20503;-59
2023/06/16 00:15:02;;;;;;;6.97;5.70;;;16.50;99.90;;;;;;5070552;28;20170;-58
2023/06/16 00:17:27;;;;;;;6.55;5.88;;;16.40;99.90;;;;;;5071285;28;20020;-57
2023/06/16 00:19:57;;;;;;;7.72;5.57;;;16.40;99.90;;;;;;5070804;28;20508;-58
2023/06/16 00:22:26;;;;;;;8.18;5.68;;;16.30;99.90;;;;;;5070901;28;20040;-58
2023/06/16 00:24:53;;;;;;;6.53;5.68;;;16.30;99.90;;;;;;5070488;28;20071;-59
2023/06/16 00:27:22;;;;;;;6.00;5.50;;;16.20;99.90;;;;;;5071380;28;20490;-58
2023/06/16 00:29:49;;;;;;;7.07;5.82;;;16.20;99.90;;;;;;5070334;28;20032;-59
2023/06/16 00:32:15;;;;;;;6.50;5.60;;;16.20;99.90;;;;;;5070721;28;20036;-59
2023/06/16 00:34:40;;;;;;;6.55;5.63;;;16.10;99.90;;;;;;5070703;28;20036;-58
2023/06/16 00:37:06;;;;;;;8.35;5.97;;;16.00;99.90;;;;;;5070769;28;20029;-58
2023/06/16 00:39:31;;;;;;;6.32;5.68;;;16.00;99.90;;;;;;5070738;28;20025;-59
2023/06/16 00:41:57;;;;;;;6.85;5.78;;;15.90;99.90;;;;;;5071089;28;20107;-58
2023/06/16 00:44:23;;;;;;;8.02;6.07;;;15.90;99.90;;;;;;5070252;28;20112;-59
2023/06/16 00:46:49;;;;;;;8.77;5.70;;;15.90;99.90;;;;;;5069870;28;20040;-58
2023/06/16 00:49:15;;;;;;;6.43;5.82;;;15.80;99.90;;;;;;5070512;28;20032;-58
2023/06/16 00:51:43;;;;;;;6.43;5.78;;;15.70;99.90;;;;;;5070746;28;20480;-58
2023/06/16 00:54:12;;;;;;;6.65;6.03;;;15.80;99.90;;;;;;5070896;28;20052;-58
2023/06/16 00:56:41;;;;;;;7.45;6.05;;;15.90;99.90;;;;;;5070418;28;20028;-58
2023/06/16 00:59:07;;;;;;;6.40;5.80;;;15.90;99.90;;;;;;5070215;28;20021;-58
2023/06/16 01:01:34;;;;;;;8.15;5.70;;;16.00;99.90;;;;;;5070275;28;20401;-58
2023/06/16 01:04:00;;;;;;;6.28;5.70;;;16.00;99.90;;;;;;5070469;28;20032;-58
2023/06/16 01:06:27;;;;;;;6.80;6.15;;;16.10;99.90;;;;;;5070800;28;20105;-59
2023/06/16 01:09:12;;;;;;;8.20;5.95;;;16.10;99.90;;;;;;5070135;28;20060;-59
2023/06/16 01:11:48;;;;;;;6.57;5.97;;;16.20;99.90;;;;;;5074304;28;20032;-58
2023/06/16 01:14:23;;;;;;;5.75;5.25;;;16.10;99.90;;;;;;5073745;28;20025;-59
2023/06/16 01:16:51;;;;;;;6.85;5.63;;;16.10;99.90;;;;;;5073969;28;20028;-59
2023/06/16 01:19:29;;;;;;;6.43;5.80;;;16.10;99.90;;;;;;5074030;28;20036;-58
2023/06/16 01:22:01;;;;;;;7.78;6.03;;;16.00;99.90;;;;;;5073926;28;20032;-58
2023/06/16 01:24:28;;;;;;;6.82;5.70;;;15.80;99.90;;;;;;5073786;28;20459;-59
2023/06/16 01:26:57;;;;;;;7.07;6.15;;;15.70;99.90;;;;;;5073690;28;20038;-58
2023/06/16 01:29:25;;;;;;;7.88;5.80;;;15.70;99.90;;;;;;5073963;28;20052;-58
2023/06/16 01:31:58;;;;;;;7.00;6.13;;;15.60;99.90;;;;;;5073958;28;20028;-59
2023/06/16 01:34:25;;;;;;;;;;;15.50;99.90;;;;;;5074031;28;20037;-59
2023/06/16 01:36:52;;;;;;;6.28;5.72;;;15.50;99.90;;;;;;5073784;28;19904;-58
2023/06/16 01:39:20;;;;;;;6.40;5.80;;;15.40;99.90;;;;;;5074011;28;20021;-59
2023/06/16 01:41:48;;;;;;;6.63;6.13;;;15.40;99.90;;;;;;5073534;28;20028;-59
2023/06/16 01:44:16;;;;;;;7.78;5.95;;;15.40;99.90;;;;;;5073119;28;20484;-59
2023/06/16 01:46:42;;;;;;;6.95;6.00;;;15.30;99.90;;;;;;5073639;28;20029;-59
2023/06/16 01:49:08;;;;;;;9.73;6.13;;;15.30;99.90;;;;;;5073806;28;20040;-58
2023/06/16 01:51:34;;;;;;;6.70;6.15;;;15.30;99.90;;;;;;5073583;28;20036;-58
2023/06/16 01:54:00;;;;;;;9.95;6.03;;;15.30;99.90;;;;;;5073479;28;20029;-58
2023/06/16 01:56:28;;;;;;;6.50;5.82;;;15.20;99.90;;;;;;5073149;28;20039;-58
2023/06/16 01:58:53;;;;;;;7.00;5.72;;;15.20;99.90;;;;;;5073097;28;20510;-58
2023/06/16 02:01:29;;;;;;;8.07;5.68;;;15.20;99.90;;;;;;5073526;28;20025;-59
2023/06/16 02:03:58;;;;;;;8.32;6.15;;;15.30;99.90;;;;;;5073463;28;20063;-59
2023/06/16 02:06:33;;;;;;;6.63;6.00;;;15.30;99.90;;;;;;5073182;28;20507;-59
2023/06/16 02:09:02;;;;;;;10.02;6.10;;;15.50;99.90;;;;;;5073197;28;20412;-59
2023/06/16 02:11:28;;;;;;;6.32;5.72;;;15.60;99.90;;;;;;5072814;28;20009;-58
2023/06/16 02:13:54;;;;;;;7.50;6.13;;;15.70;99.90;;;;;;5072877;28;20465;-58
2023/06/16 02:16:20;;;;;;;6.25;5.65;;;15.60;99.90;;;;;;5073028;28;20078;-59
2023/06/16 02:18:49;;;;;;;6.53;5.90;;;15.60;99.90;;;;;;5073027;28;20043;-58
2023/06/16 02:21:16;;;;;;;7.10;6.40;;;15.60;99.90;;;;;;5071897;28;20025;-58
2023/06/16 02:23:41;;;;;;;6.90;5.90;;;15.70;99.90;;;;;;5072549;28;20044;-58
2023/06/16 02:26:07;;;;;;;7.18;5.85;;;15.70;99.90;;;;;;5072561;28;20447;-58
2023/06/16 02:28:33;;;;;;;8.02;6.35;;;15.70;99.90;;;;;;5072684;28;20072;-59
2023/06/16 02:30:58;;;;;;;9.93;6.60;;;15.60;99.90;;;;;;5073282;28;20020;-59
2023/06/16 02:33:24;;;;;;;10.15;6.28;;;15.40;99.90;;;;;;5072660;28;20028;-59
2023/06/16 02:35:50;;;;;;;6.90;6.20;;;15.30;99.90;;;;;;5072308;28;20028;-59
2023/06/16 02:38:15;;;;;;;6.88;6.22;;;15.30;99.90;;;;;;5072790;28;20060;-58
2023/06/16 02:40:41;;;;;;;7.40;6.68;;;15.20;99.90;;;;;;5072135;28;20103;-59
2023/06/16 02:43:07;;;;;;;7.85;6.90;;;15.10;99.90;;;;;;5072277;28;20135;-58
2023/06/16 02:45:32;;;;;;;7.22;6.55;;;15.10;99.90;;;;;;5072321;28;20067;-58
2023/06/16 02:47:58;;;;;;;7.57;6.93;;;15.10;99.90;;;;;;5072570;28;20071;-58
2023/06/16 02:50:23;;;;;;;7.70;6.95;;;15.00;99.90;;;;;;5072389;28;20029;-58
2023/06/16 02:52:49;;;;;;;8.07;6.85;;;15.00;99.90;;;;;;5072558;28;20036;-58
2023/06/16 02:55:15;;;;;;;11.18;7.35;;;14.90;99.90;;;;;;5071928;28;20043;-58
2023/06/16 02:57:41;;;;;;;8.13;7.10;;;14.90;99.90;;;;;;5072283;28;20079;-58
2023/06/16 03:00:10;;;;;;;8.75;6.90;;;14.80;99.90;;;;;;5072066;28;20477;-58
2023/06/16 03:02:36;;;;;;;8.10;7.40;;;14.80;99.90;;;;;;5072291;28;20507;-59
2023/06/16 03:05:03;;;;;;;8.15;7.35;;;14.70;99.90;;;;;;5071960;28;20435;-58
2023/06/16 03:07:31;;;;;;;8.23;7.43;;;14.60;99.90;;;;;;5071852;28;20046;-58
2023/06/16 03:09:59;;;;;;;8.63;7.82;;;14.50;99.90;;;;;;5071674;28;20515;-59
2023/06/16 03:12:25;;;;;;;8.57;7.78;;;14.60;99.90;;;;;;5072103;28;20028;-58
2023/06/16 03:14:51;;;;;;;8.40;7.55;;;14.60;99.90;;;;;;5071819;28;20276;-58
2023/06/16 03:17:21;;;;;;;7.93;7.13;;;14.60;99.90;;;;;;5071968;28;20539;-58
2023/06/16 03:19:50;;;;;;;8.20;7.40;;;14.70;99.90;;;;;;5071719;28;20435;-58
2023/06/16 03:22:16;;;;;;;7.75;7.05;;;14.80;99.90;;;;;;5071641;28;20047;-58
2023/06/16 03:24:43;;;;;;;7.68;7.05;;;15.00;99.90;;;;;;5071172;28;20424;-58
2023/06/16 03:27:09;;;;;;;8.00;7.22;;;15.00;99.90;;;;;;5072015;28;20029;-58
2023/06/16 03:29:36;;;;;;;7.38;6.70;;;15.10;99.90;;;;;;5071472;28;20032;-58
2023/06/16 03:32:05;;;;;;;8.02;7.32;;;15.10;99.90;;;;;;5071304;28;20115;-58
2023/06/16 03:34:31;;;;;;;10.02;6.90;;;15.20;99.90;;;;;;5071351;28;20113;-58
2023/06/16 03:36:57;;;;;;;7.38;6.68;;;15.20;99.90;;;;;;5071591;28;20032;-58
2023/06/16 03:39:23;;;;;;;7.68;6.90;;;15.10;99.90;;;;;;5071048;28;20023;-58
2023/06/16 03:41:49;;;;;;;7.78;7.03;;;15.00;99.90;;;;;;5071462;28;20039;-58
2023/06/16 03:44:15;;;;;;;7.40;6.72;;;14.90;99.90;;;;;;5071430;28;20029;-58
2023/06/16 03:46:41;;;;;;;7.10;6.50;;;14.80;99.90;;;;;;5071294;28;20028;-58
2023/06/16 03:49:10;;;;;;;7.57;6.97;;;14.70;99.90;;;;;;5071319;28;20037;-59
2023/06/16 03:51:37;;;;;;;8.05;7.30;;;14.70;99.90;;;;;;5071292;28;20035;-58
2023/06/16 03:54:03;;;;;;;7.50;6.80;;;14.60;99.90;;;;;;5071020;28;20369;-58
2023/06/16 03:56:28;;;;;;;7.60;6.78;;;14.70;99.90;;;;;;5071484;28;20035;-58
2023/06/16 03:58:55;;;;;;;7.82;7.07;;;14.60;99.90;;;;;;5071514;28;20029;-58
2023/06/16 04:01:22;;;;;;;7.63;7.03;;;14.50;99.90;;;;;;5071455;28;20036;-58
2023/06/16 04:03:49;;;;;;;8.10;7.40;;;14.50;99.90;;;;;;5070939;28;20024;-58
2023/06/16 04:06:15;;;;;;;7.85;7.15;;;14.40;99.90;;;;;;5071214;28;20029;-58
2023/06/16 04:08:41;;;;;;;7.07;6.53;;;14.40;99.90;;;;;;5070800;28;20404;-61
2023/06/16 04:11:07;;;;;;;7.75;7.10;;;14.40;99.90;;;;;;5071172;28;20024;-61
2023/06/16 04:13:33;;;;;;;7.60;7.00;;;14.40;99.90;;;;;;5070970;28;20028;-60
2023/06/16 04:15:58;;;;;;;7.53;6.93;;;14.30;99.90;;;;;;5071586;28;20396;-60
2023/06/16 04:18:24;;;;;;;7.40;6.80;;;14.40;99.90;;;;;;5071066;28;20063;-60
2023/06/16 04:20:50;;;;;;;7.82;7.00;;;14.30;99.90;;;;;;5070814;28;20138;-60
2023/06/16 04:23:16;;;;;;;7.63;7.03;;;14.30;99.90;;;;;;5070769;28;20501;-60
2023/06/16 04:25:42;;;;;;;7.07;6.50;;;14.30;99.90;;;;;;5070696;28;20126;-61
2023/06/16 04:28:13;;;;;;;7.55;6.85;;;14.30;99.90;;;;;;5071188;28;20060;-61
2023/06/16 04:30:40;;;;;;;7.00;6.30;;;14.30;99.90;;;;;;5071110;28;20047;-60
2023/06/16 04:33:06;;;;;;;9.23;6.60;;;14.50;99.90;;;;;;5070901;28;20094;-60
2023/06/16 04:35:34;;;;;;;7.22;6.55;;;14.60;99.90;;;;;;5070829;28;20048;-60
2023/06/16 04:38:00;;;;;;;6.72;6.10;;;14.70;99.90;;;;;;5070320;28;20021;-61
2023/06/16 04:40:32;;;;;;;6.80;6.30;;;14.80;99.90;;;;;;5071217;28;20059;-60
2023/06/16 04:42:57;;;;;;;6.97;6.45;;;14.80;99.90;;;;;;5070991;28;20040;-60
2023/06/16 04:45:24;;;;;;;6.97;6.40;;;14.90;99.90;;;;;;5072708;28;20032;-60
2023/06/16 04:47:52;;;;;;;7.15;6.55;;;15.00;99.90;;;;;;5074876;28;20020;-60
2023/06/16 04:50:18;;;;;;;7.13;6.60;;;15.10;99.90;;;;;;5074808;28;20039;-60
2023/06/16 04:52:45;;;;;;;7.57;6.88;;;15.10;99.90;;;;;;5072720;28;20028;-61
2023/06/16 04:55:11;;;;;;;7.57;6.88;;;15.10;99.90;;;;;;5074695;28;20070;-60
2023/06/16 04:57:37;;;;;;;7.32;6.72;;;15.00;99.90;;;;;;5074225;28;20551;-60
2023/06/16 05:00:06;;;;;;;8.48;7.35;;;15.00;99.90;;;;;;5074331;28;20107;-60
2023/06/16 05:02:32;;;;;;;8.52;7.70;;;15.00;99.90;;;;;;5073896;28;20088;-60
2023/06/16 05:05:00;;;;;;;8.63;7.75;;;14.90;99.90;;;;;;5073871;28;20115;-60
2023/06/16 05:07:25;;;;;;;8.25;7.45;;;15.00;99.90;;;;;;5074675;28;20025;-60
2023/06/16 05:09:51;;;;;;;9.07;7.70;;;14.90;99.90;;;;;;5074029;28;20425;-60
2023/06/16 05:12:17;;;;;;;8.65;7.65;;;14.90;99.90;;;;;;5074254;28;20024;-61
2023/06/16 05:14:42;;;;;;;10.57;8.15;;;14.90;99.90;;;;;;5074649;28;20480;-60
2023/06/16 05:17:08;;;;;;;10.38;8.30;;;15.00;99.90;;;;;;5074096;28;20036;-61
2023/06/16 05:19:33;;;;;;;9.98;8.38;;;15.00;99.90;;;;;;5073759;28;20454;-60
2023/06/16 05:22:00;;;;;;;9.55;8.55;;;15.00;99.90;;;;;;5074057;28;20031;-61
2023/06/16 05:24:25;;;;;;;9.32;8.30;;;15.00;99.90;;;;;;5074158;28;20072;-60
2023/06/16 05:26:51;;;;;;;9.52;8.50;;;15.10;99.90;;;;;;5073884;28;20455;-60
2023/06/16 05:29:17;;;;;;;8.80;8.00;;;15.10;99.90;;;;;;5073792;28;20044;-60
2023/06/16 05:31:43;;;;;;;10.82;8.82;;;15.10;99.90;;;;;;5073591;28;20459;-60
2023/06/16 05:34:08;;;;;;;9.35;8.25;;;15.20;99.90;;;;;;5073688;28;20098;-60
2023/06/16 05:36:35;;;;;;;9.73;8.82;;;15.20;99.90;;;;;;5073895;28;20020;-61
2023/06/16 05:39:07;;;;;;;10.32;8.93;;;15.30;99.90;;;;;;5073727;28;20031;-60
2023/06/16 05:41:34;;;;;;;10.05;9.15;;;15.30;99.90;;;;;;5073703;28;20104;-60
2023/06/16 05:44:00;;;;;;;11.40;9.48;;;15.40;99.90;;;;;;5073953;28;20115;-60
2023/06/16 05:46:26;;;;;;;9.50;8.60;;;15.50;99.90;;;;;;5073269;28;20037;-60
2023/06/16 05:48:52;;;;;;;10.35;8.98;;;15.70;99.90;;;;;;5073218;28;20527;-60
2023/06/16 05:51:17;;;;;;;10.20;9.20;;;15.80;99.90;;;;;;5073249;28;20499;-58
2023/06/16 05:53:43;;;;;;;10.73;8.68;;;15.80;99.90;;;;;;5073497;28;20027;-58
2023/06/16 05:56:09;;;;;;;9.73;8.68;;;16.00;99.90;;;;;;5073777;28;20024;-58
2023/06/16 05:58:38;;;;;;;9.65;8.80;;;16.10;99.90;;;;;;5072831;28;20021;-58
2023/06/16 06:01:05;;;;;;;14.60;9.10;;;16.20;99.90;;;;;;5072385;28;20020;-58
2023/06/16 06:03:31;;;;;;;9.75;8.77;;;16.20;99.90;;;;;;5072931;28;20047;-58
2023/06/16 06:05:57;;;;;;;12.85;8.35;;;16.30;99.90;;;;;;5073035;28;20420;-58
2023/06/16 06:08:27;;;;;;;14.02;8.80;;;16.40;99.90;;;;;;5072991;28;20037;-58
2023/06/16 06:10:54;;;;;;;10.27;8.52;;;16.40;99.90;;;;;;5073059;28;20289;-59
2023/06/16 06:13:20;;;;;;;12.27;9.60;;;16.40;99.90;;;;;;5073264;28;20028;-58
2023/06/16 06:15:46;;;;;;;14.02;9.65;;;16.50;99.90;;;;;;5072998;28;20025;-59
2023/06/16 06:18:11;;;;;;;14.10;9.30;;;16.40;99.90;;;;;;5073054;28;20035;-58
2023/06/16 06:20:41;;;;;;;12.40;9.25;;;16.50;99.90;;;;;;5073179;28;20045;-57
2023/06/16 06:23:07;;;;;;;9.93;8.88;;;16.60;99.90;;;;;;5073055;28;20028;-58
2023/06/16 06:25:33;;;;;;;12.38;9.20;;;16.60;99.90;;;;;;5072796;28;20177;-58
2023/06/16 06:27:58;;;;;;;11.70;9.15;;;16.60;99.90;;;;;;5072454;28;20044;-57
2023/06/16 06:30:28;;;;;;;11.27;9.10;;;16.70;99.90;;;;;;5072959;28;20473;-58
2023/06/16 06:32:55;;;;;;;10.38;8.88;;;16.70;99.90;;;;;;5072306;28;20017;-58
2023/06/16 06:35:21;;;;;;;10.75;8.35;;;17.10;99.90;;;;;;5072354;28;20025;-57
2023/06/16 06:37:47;;;;;;;10.77;7.55;;;17.10;99.90;;;;;;5072595;28;20039;-58
2023/06/16 06:40:12;;;;;;;10.23;7.32;;;17.30;99.90;;;;;;5072671;28;20032;-57
2023/06/16 06:42:38;;;;;;;12.57;8.20;;;17.40;99.90;;;;;;5072791;28;20530;-57
2023/06/16 06:45:04;;;;;;;12.57;7.90;;;17.60;99.90;;;;;;5072354;28;20033;-57
2023/06/16 06:47:30;;;;;;;10.77;8.18;;;17.70;99.90;;;;;;5072036;28;20111;-58
2023/06/16 06:49:55;;;;;;;11.20;8.23;;;17.80;99.90;;;;;;5072254;28;20116;-56
2023/06/16 06:52:21;;;;;;;8.77;7.88;;;17.70;99.90;;;;;;5072138;28;20028;-58
2023/06/16 06:54:47;;;;;;;10.63;8.85;;;17.80;99.90;;;;;;5072109;28;20062;-57
2023/06/16 06:57:13;;;;;;;8.48;7.43;;;17.90;99.90;;;;;;5072198;28;20025;-58
2023/06/16 06:59:41;;;;;;;8.98;8.07;;;18.30;99.90;;;;;;5072180;28;20079;-58
2023/06/16 07:02:06;;;;;;;9.10;7.35;;;18.50;99.90;;;;;;5071455;28;20501;-58
2023/06/16 07:04:33;;;;;;;8.70;7.80;;;18.50;99.90;;;;;;5072215;28;20146;-58
2023/06/16 07:07:00;;;;;;;8.23;7.22;;;18.80;99.90;;;;;;5071546;28;20032;-60
2023/06/16 07:09:25;;;;;;;9.50;7.75;;;19.00;99.90;;;;;;5071683;28;20048;-60
2023/06/16 07:11:51;;;;;;;11.02;7.93;;;19.10;99.90;;;;;;5071617;28;20029;-57
2023/06/16 07:14:17;;;;;;;8.35;7.43;;;19.20;99.90;;;;;;5071846;28;20070;-58
2023/06/16 07:16:42;;;;;;;10.07;7.65;;;19.30;99.90;;;;;;5071287;28;20024;-58
2023/06/16 07:19:08;;;;;;;8.65;7.75;;;19.20;99.90;;;;;;5071628;28;20028;-58
2023/06/16 07:21:34;;;;;;;11.82;9.20;;;19.40;99.90;;;;;;5071617;28;20028;-58
2023/06/16 07:23:59;;;;;;;10.90;8.88;;;19.30;99.90;;;;;;5071729;28;20043;-58
2023/06/16 07:26:25;;;;;;;14.07;8.85;;;19.30;99.90;;;;;;5071481;28;20116;-57
2023/06/16 07:28:51;;;;;;;13.82;9.18;;;19.20;99.90;;;;;;5071384;28;20033;-59
2023/06/16 07:31:17;;;;;;;11.77;9.75;;;19.00;99.90;;;;;;5070933;28;20083;-59
2023/06/16 07:33:42;;;;;;;9.60;8.60;;;19.00;99.90;;;;;;5070412;28;20024;-60
2023/06/16 07:36:08;;;;;;;11.63;8.88;;;19.00;99.90;;;;;;5071598;28;20025;-60
2023/06/16 07:38:34;;;;;;;10.02;7.40;;;18.80;99.90;;;;;;5071524;28;20029;-59
2023/06/16 07:41:02;;;;;;;8.10;7.10;;;18.80;99.90;;;;;;5071422;28;20039;-59
2023/06/16 07:43:27;;;;;;;9.07;7.03;;;19.00;99.90;;;;;;5071402;28;20550;-59
2023/06/16 07:45:53;;;;;;;7.30;6.50;;;19.00;99.90;;;;;;5070340;28;20040;-58
2023/06/16 07:48:18;;;;;;;8.60;7.13;;;19.10;99.90;;;;;;5070860;28;20127;-59
2023/06/16 07:50:44;;;;;;;6.30;5.07;;;19.30;99.90;;;;;;5071429;28;20025;-59
2023/06/16 07:53:10;;;;;;;6.50;5.70;;;19.20;99.90;;;;;;5071506;28;20031;-60
2023/06/16 07:55:35;;;;;;;5.68;4.90;;;19.30;99.90;;;;;;5071251;28;20052;-59
2023/06/16 07:58:02;;;;;;;5.97;5.15;;;19.40;99.90;;;;;;5071203;28;20043;-60
2023/06/16 08:00:27;;;;;;;5.97;5.22;;;19.40;99.90;;;;;;5070816;28;20036;-60
2023/06/16 08:02:53;;;;;;;5.28;4.22;;;19.60;99.90;;;;;;5071345;28;20033;-59
2023/06/16 08:05:20;;;;;;;4.88;4.05;;;19.90;99.90;;;;;;5071269;28;20052;-60
2023/06/16 08:07:46;;;;;;;4.88;3.63;;;20.10;99.90;;;;;;5071214;28;20044;-59
2023/06/16 08:10:12;;;;;;;4.45;3.47;;;20.10;99.90;;;;;;5071289;28;20036;-60
2023/06/16 08:12:38;;;;;;;4.32;3.53;;;20.00;99.90;;;;;;5071326;28;20396;-60
2023/06/16 08:15:04;;;;;;;5.38;3.95;;;20.10;99.90;;;;;;5070671;28;20036;-59
2023/06/16 08:17:30;;;;;;;5.25;3.80;;;20.00;99.90;;;;;;5071230;28;20366;-59
2023/06/16 08:19:56;;;;;;;4.97;3.83;;;20.00;99.90;;;;;;5072592;28;20032;-59
2023/06/16 08:22:21;;;;;;;5.35;3.80;;;20.30;99.90;;;;;;5075580;28;20523;-59
2023/06/16 08:24:47;;;;;;;4.10;3.28;;;20.30;99.90;;;;;;5075110;28;20057;-59
2023/06/16 08:27:13;;;;;;;4.65;3.40;;;20.30;99.90;;;;;;5075178;28;20020;-60
2023/06/16 08:29:39;;;;;;;4.13;3.50;;;20.40;99.90;;;;;;5074740;28;20032;-60
2023/06/16 08:32:06;;;;;;;4.78;3.63;;;20.20;99.90;;;;;;5075186;28;20052;-59
2023/06/16 08:34:33;;;;;;;4.55;3.40;;;19.90;99.90;;;;;;5074937;28;20029;-59
2023/06/16 08:37:00;;;;;;;4.53;3.40;;;19.90;99.90;;;;;;5074897;28;20054;-59
2023/06/16 08:39:26;;;;;;;6.38;3.58;;;19.90;99.90;;;;;;5074908;28;20035;-60
2023/06/16 08:41:52;;;;;;;4.78;3.53;;;19.90;99.90;;;;;;5074500;28;20032;-60
2023/06/16 08:44:20;;;;;;;5.20;3.47;;;19.90;99.90;;;;;;5074361;28;20020;-59
2023/06/16 08:46:46;;;;;;;4.60;3.25;;;20.00;99.90;;;;;;5074924;28;20361;-59
2023/06/16 08:49:14;;;;;;;5.07;3.53;;;20.10;99.90;;;;;;5074608;28;20063;-59
2023/06/16 08:51:49;;;;;;;3.95;3.58;;;20.00;99.90;;;;;;5074616;28;20035;-59
2023/06/16 08:54:18;;;;;;;4.53;3.70;;;20.00;99.90;;;;;;5074420;28;20032;-60
2023/06/16 08:56:45;;;;;;;4.43;3.80;;;20.10;99.90;;;;;;5075145;28;20020;-59
2023/06/16 08:59:12;;;;;;;4.10;3.70;;;20.10;99.90;;;;;;5073996;28;20040;-60
2023/06/16 09:01:40;;;;;;;4.32;3.83;;;20.00;99.90;;;;;;5074485;28;20036;-59
2023/06/16 09:04:09;;;;;;;4.15;3.72;;;20.10;99.90;;;;;;5074130;28;20302;-59
2023/06/16 09:06:44;;;;;;;4.38;3.58;;;20.20;99.90;;;;;;5074366;28;20075;-59
2023/06/16 09:09:10;;;;;;;4.15;3.60;;;20.30;99.90;;;;;;5074581;28;20111;-59
2023/06/16 09:11:35;;;;;;;4.50;3.70;;;20.30;99.90;;;;;;5073833;28;20108;-59
2023/06/16 09:14:13;;;;;;;5.20;3.70;;;20.20;99.90;;;;;;5074409;28;20060;-59
2023/06/16 09:16:39;;;;;;;6.68;3.95;;;20.60;99.90;;;;;;5074490;28;20104;-59
2023/06/16 09:19:07;;;;;;;4.82;3.78;;;21.00;99.90;;;;;;5074225;28;20024;-59
2023/06/16 09:21:34;;;;;;;4.32;3.60;;;21.30;99.90;;;;;;5074105;28;20511;-60
2023/06/16 09:24:00;;;;;;;5.20;3.50;;;21.50;99.90;;;;;;5073839;28;20090;-60
2023/06/16 09:26:33;;;;;;;3.60;3.30;;;21.50;99.90;;;;;;5073804;28;20126;-60
2023/06/16 09:28:58;;;;;;;4.72;3.60;;;21.50;99.90;;;;;;5073844;28;20500;-59
2023/06/16 09:31:28;;;;;;;4.90;3.60;;;21.60;99.90;;;;;;5074018;28;20055;-59
2023/06/16 09:34:04;;;;;;;4.13;3.58;;;21.50;99.90;;;;;;5073827;28;20074;-59
2023/06/16 09:36:30;;;;;;;4.65;3.75;;;21.80;99.90;;;;;;5073831;28;20031;-59
2023/06/16 09:38:56;;;;;;;3.92;3.60;;;21.70;99.90;;;;;;5073734;28;20031;-60
2023/06/16 09:41:22;;;;;;;4.18;3.42;;;21.90;99.90;;;;;;5073917;28;20404;-60
2023/06/16 09:43:48;;;;;;;5.88;3.65;;;21.90;99.90;;;;;;5073830;28;20607;-60
2023/06/16 09:46:15;;;;;;;4.88;3.80;;;21.90;99.90;;;;;;5073777;28;20103;-59
2023/06/16 09:48:47;;;;;;;5.55;3.75;;;21.70;99.90;;;;;;5073519;28;20573;-60
2023/06/16 09:51:23;;;;;;;4.25;3.70;;;21.50;99.90;;;;;;5073967;28;20020;-60
2023/06/16 09:53:50;;;;;;;4.28;3.83;;;21.50;99.90;;;;;;5073447;28;20078;-60
2023/06/16 09:56:19;;;;;;;4.65;4.20;;;21.50;99.90;;;;;;5073403;28;20067;-60
2023/06/16 09:58:46;;;;;;;5.45;4.38;;;21.40;99.90;;;;;;5073512;28;20098;-60
2023/06/16 10:01:13;;;;;;;4.90;3.80;;;21.50;99.90;;;;;;5073682;28;20054;-60
2023/06/16 10:03:41;;;;;;;6.03;4.07;;;21.60;99.90;;;;;;5073300;28;20493;-59
2023/06/16 10:06:19;;;;;;;5.68;4.13;;;21.70;99.90;;;;;;5073451;28;20086;-60
2023/06/16 10:08:47;;;;;;;4.57;4.00;;;21.90;99.90;;;;;;5073087;28;20078;-59
2023/06/16 10:11:15;;;;;;;4.32;3.83;;;21.80;99.90;;;;;;5072902;28;20032;-59
2023/06/16 10:13:48;;;;;;;5.15;4.10;;;21.80;99.90;;;;;;5073419;28;20070;-60
2023/06/16 10:16:17;;;;;;;4.68;4.13;;;21.90;99.90;;;;;;5073190;28;20028;-60
2023/06/16 10:18:44;;;;;;;7.80;4.13;;;21.90;99.90;;;;;;5073343;28;20442;-60
2023/06/16 10:21:11;;;;;;;5.72;4.20;;;22.10;99.90;;;;;;5073449;28;20071;-60
2023/06/16 10:23:36;;;;;;;5.97;4.10;;;22.10;99.90;;;;;;5072729;28;20508;-60
2023/06/16 10:26:07;;;;;;;4.68;4.28;;;22.00;99.90;;;;;;5072707;28;20036;-59
2023/06/16 10:28:35;;;;;;;7.85;4.32;;;22.20;99.90;;;;;;5072810;28;20078;-59
2023/06/16 10:31:03;;;;;;;6.93;3.85;;;22.60;99.90;;;;;;5072937;28;20031;-60
2023/06/16 10:33:28;;;;;;;4.50;4.10;;;22.90;99.90;;;;;;5073196;28;20078;-59
2023/06/16 10:35:56;;;;;;;4.80;3.90;;;23.10;99.90;;;;;;5072235;28;20435;-60
2023/06/16 10:38:35;;;;;;;4.72;4.10;;;23.40;99.90;;;;;;5073018;28;20054;-59
2023/06/16 10:41:02;;;;;;;4.80;4.30;;;23.40;99.90;;;;;;5072808;28;20032;-60
2023/06/16 10:43:28;;;;;;;5.35;4.35;;;23.40;99.90;;;;;;5071846;28;20024;-60
2023/06/16 10:46:26;;;;;;;6.45;4.68;;;23.40;99.90;;;;;;5072535;28;20020;-59
2023/06/16 10:49:10;;;;;;;4.60;4.20;;;23.70;99.90;;;;;;5050082;28;20624;-60
2023/06/16 10:51:44;;;;;;;4.45;3.95;;;23.90;99.90;;;;;;5049927;28;20073;-59
2023/06/16 10:54:12;;;;;;;5.93;4.82;;;23.80;99.90;;;;;;5050029;28;20033;-60
2023/06/16 10:57:03;;;;;;;5.32;4.82;;;24.10;99.90;;;;;;5049997;28;20596;-60
2023/06/16 10:59:29;;;;;;;7.95;5.28;;;24.00;99.90;;;;;;5050424;28;20541;-60
2023/06/16 11:01:59;;;;;;;6.70;4.80;;;24.00;99.90;;;;;;5049802;28;20029;-60
2023/06/16 11:04:25;;;;;;;6.40;5.00;;;23.80;99.90;;;;;;5049873;28;20033;-60
2023/06/16 11:07:08;;;;;;;6.53;5.30;;;23.80;99.90;;;;;;5049700;28;20481;-60
2023/06/16 11:09:35;;;;;;;6.07;5.40;;;23.70;99.90;;;;;;5049329;28;20079;-59
2023/06/16 11:12:04;;;;;;;6.03;5.50;;;23.70;99.90;;;;;;5049723;28;20040;-59
2023/06/16 11:14:31;;;;;;;8.00;5.43;;;23.80;99.90;;;;;;5049579;28;20025;-60
2023/06/16 11:16:56;;;;;;;6.38;5.13;;;23.80;99.90;;;;;;5050021;28;20079;-60
2023/06/16 11:19:25;;;;;;;5.40;4.90;;;23.60;99.90;;;;;;5049653;28;20033;-60
2023/06/16 11:21:50;;;;;;;6.93;5.30;;;23.60;99.90;;;;;;5049693;28;20080;-60
2023/06/16 11:24:18;;;;;;;5.72;4.78;;;23.70;99.90;;;;;;5058769;28;20048;-60
2023/06/16 11:26:44;;;;;;;7.07;4.82;;;23.80;99.90;;;;;;5071929;28;20052;-60
2023/06/16 11:29:10;;;;;;;5.63;5.13;;;23.70;99.90;;;;;;5071719;28;20545;-60
2023/06/16 11:31:38;;;;;;;7.00;5.28;;;23.90;99.90;;;;;;5071627;28;20048;-60
2023/06/16 11:34:05;;;;;;;5.60;5.03;;;23.90;99.90;;;;;;5071909;28;20439;-60
2023/06/16 11:36:34;;;;;;;6.85;5.18;;;24.00;99.90;;;;;;5071261;28;20068;-60
2023/06/16 11:39:02;;;;;;;7.22;5.20;;;23.90;99.90;;;;;;5071604;28;20032;-60
2023/06/16 11:41:29;;;;;;;5.57;4.60;;;24.10;99.90;;;;;;5072064;28;20051;-59
2023/06/16 11:43:56;;;;;;;5.53;5.00;;;24.30;99.90;;;;;;5071401;28;20043;-60
2023/06/16 11:46:32;;;;;;;6.88;4.82;;;24.70;99.90;;;;;;5071632;28;20548;-60
2023/06/16 11:49:01;;;;;;;5.13;4.60;;;24.80;99.90;;;;;;5071152;28;20028;-60
2023/06/16 11:51:27;;;;;;;5.88;4.57;;;24.80;99.90;;;;;;5071510;28;20083;-60
2023/06/16 11:53:53;;;;;;;4.95;4.40;;;25.10;99.90;;;;;;5071158;28;20052;-60
2023/06/16 11:56:23;;;;;;;5.57;4.35;;;25.30;99.90;;;;;;5071298;28;20021;-60
2023/06/16 11:58:48;;;;;;;4.82;4.43;;;25.30;99.90;;;;;;5071463;28;20027;-60
2023/06/16 12:01:18;;;;;;;6.88;4.60;;;25.30;99.90;;;;;;5071241;28;20037;-60
2023/06/16 12:03:46;;;;;;;5.03;4.00;;;25.30;99.90;;;;;;5071399;28;20033;-60
2023/06/16 12:06:12;;;;;;;6.32;4.43;;;25.20;99.90;;;;;;5070894;28;20071;-60
2023/06/16 12:08:42;;;;;;;5.03;4.53;;;25.40;99.90;;;;;;5071155;28;20036;-59
2023/06/16 12:11:15;;;;;;;4.85;4.20;;;25.40;99.90;;;;;;5071520;28;20070;-60
2023/06/16 12:13:41;;;;;;;7.57;4.80;;;25.40;99.90;;;;;;5071225;28;20081;-60
2023/06/16 12:16:08;;;;;;;4.75;4.28;;;25.40;99.90;;;;;;5071141;28;20032;-59
2023/06/16 12:18:34;;;;;;;4.60;4.18;;;25.40;99.90;;;;;;5071023;28;20063;-60
2023/06/16 12:21:27;;;;;;;4.57;4.18;;;25.40;99.90;;;;;;5069382;28;20031;-59
2023/06/16 12:23:58;;;;;;;5.28;4.10;;;25.40;99.90;;;;;;5070711;28;20048;-60
2023/06/16 12:26:39;;;;;;;5.05;4.30;;;25.30;99.90;;;;;;5071059;28;20480;-60
2023/06/16 12:29:13;;;;;;;4.80;4.35;;;25.30;99.90;;;;;;5071320;28;20041;-60
2023/06/16 12:31:56;;;;;;;6.22;4.30;;;25.00;99.90;;;;;;5070949;28;20025;-60
2023/06/16 12:34:33;;;;;;;4.40;4.10;;;24.80;99.90;;;;;;5070822;28;20029;-60
2023/06/16 12:37:12;;;;;;;5.68;4.20;;;24.90;99.90;;;;;;5070778;28;20499;-60
2023/06/16 12:39:38;;;;;;;6.40;4.03;;;25.00;99.90;;;;;;5071040;28;20111;-60
2023/06/16 12:42:07;;;;;;;6.60;4.20;;;25.00;99.90;;;;;;5070958;28;20021;-60
2023/06/16 12:44:50;;;;;;;4.72;4.32;;;24.90;99.90;;;;;;5071177;28;20032;-60
2023/06/16 12:47:21;;;;;;;5.32;4.22;;;25.00;99.90;;;;;;5070669;28;20017;-60